Time;durP1;ratioP1;P1;durP2;ratioP2;P2;SDS_P1;SDS_P2;PMS_P1;PMS_P2;Temp;Humidity;BMP_temperature;BMP_pressure;BME280_temperature;BME280_humidity;BME280_pressure;Samples;Min_cycle;Max_cycle;Signal;HPM_P1;HPM_P2
2022/05/07 00:00:18;;;;;;;60.60;37.55;;;;;;;;;;6229625;28;20054;-67
2022/05/07 00:03:19;;;;;;;35.45;25.08;;;;;;;;;;6225857;28;20089;-66
2022/05/07 00:06:22;;;;;;;30.73;22.10;;;;;;;;;;6229859;28;20100;-66
2022/05/07 00:09:24;;;;;;;33.35;22.92;;;;;;;;;;6227901;28;20051;-69
2022/05/07 00:12:26;;;;;;;32.80;22.50;;;;;;;;;;6219460;28;20117;-67
2022/05/07 00:15:27;;;;;;;32.50;22.40;;;;;;;;;;6222203;28;20376;-67
2022/05/07 00:18:29;;;;;;;33.45;21.60;;;;;;;;;;6220221;28;20058;-66
2022/05/07 00:21:32;;;;;;;33.85;21.65;;;;;;;;;;6215778;28;20169;-67
2022/05/07 00:24:33;;;;;;;31.40;21.10;;;;;;;;;;6225300;28;20104;-66
2022/05/07 00:27:35;;;;;;;30.27;20.80;;;;;;;;;;6226683;28;20054;-66
2022/05/07 00:30:37;;;;;;;30.67;20.75;;;;;;;;;;6221857;28;20050;-67
2022/05/07 00:33:38;;;;;;;29.67;21.02;;;;;;;;;;6223080;28;20092;-66
2022/05/07 00:36:41;;;;;;;31.58;20.73;;;;;;;;;;6227135;28;20049;-67
2022/05/07 00:39:43;;;;;;;28.20;19.60;;;;;;;;;;6222893;28;20052;-67
2022/05/07 00:42:44;;;;;;;30.70;21.90;;;;;;;;;;6216879;28;20057;-66
2022/05/07 00:45:46;;;;;;;29.75;20.92;;;;;;;;;;6224011;28;20056;-68
2022/05/07 00:48:48;;;;;;;30.55;20.58;;;;;;;;;;6225067;28;20050;-65
2022/05/07 00:51:50;;;;;;;33.28;22.08;;;;;;;;;;6229008;28;20053;-66
2022/05/07 00:54:52;;;;;;;31.83;22.25;;;;;;;;;;6223624;28;20046;-65
2022/05/07 00:57:55;;;;;;;32.33;22.60;;;;;;;;;;6226559;28;20054;-66
2022/05/07 01:00:57;;;;;;;33.43;22.53;;;;;;;;;;6226556;28;20050;-66
2022/05/07 01:03:59;;;;;;;32.55;22.02;;;;;;;;;;6224110;28;20070;-66
2022/05/07 01:07:03;;;;;;;33.25;22.52;;;;;;;;;;6225466;28;20065;-67
2022/05/07 01:10:06;;;;;;;32.47;22.92;;;;;;;;;;6227392;28;20101;-66
2022/05/07 01:13:08;;;;;;;35.28;23.73;;;;;;;;;;6220553;28;20229;-66
2022/05/07 01:16:11;;;;;;;36.30;23.17;;;;;;;;;;6226310;28;20117;-67
2022/05/07 01:19:13;;;;;;;35.05;24.20;;;;;;;;;;6225019;28;20057;-66
2022/05/07 01:22:16;;;;;;;35.72;23.80;;;;;;;;;;6225476;28;20046;-66
2022/05/07 01:25:18;;;;;;;37.50;24.17;;;;;;;;;;6226251;28;20104;-67
2022/05/07 01:28:19;;;;;;;36.17;24.73;;;;;;;;;;6224511;28;20046;-67
2022/05/07 01:31:21;;;;;;;39.67;25.75;;;;;;;;;;6224430;28;20054;-68
2022/05/07 01:34:23;;;;;;;37.40;23.92;;;;;;;;;;6221407;28;20053;-68
2022/05/07 01:37:26;;;;;;;34.63;24.50;;;;;;;;;;6223623;28;20054;-68
2022/05/07 01:40:27;;;;;;;38.92;25.05;;;;;;;;;;6228501;28;20109;-67
2022/05/07 01:43:32;;;;;;;35.67;24.42;;;;;;;;;;6224003;28;20050;-68
2022/05/07 01:49:53;;;;;;;35.53;23.55;;;;;;;;;;6226675;28;20042;-69
2022/05/07 01:52:56;;;;;;;36.60;24.58;;;;;;;;;;6225780;28;20321;-68
2022/05/07 01:55:57;;;;;;;37.40;24.50;;;;;;;;;;6220614;28;20045;-68
2022/05/07 01:58:59;;;;;;;32.55;23.13;;;;;;;;;;6229262;28;20100;-68
2022/05/07 02:02:00;;;;;;;35.63;23.20;;;;;;;;;;6226232;28;20072;-67
2022/05/07 02:05:02;;;;;;;35.10;23.75;;;;;;;;;;6224811;28;20109;-68
2022/05/07 02:08:06;;;;;;;34.83;23.70;;;;;;;;;;6219665;28;20046;-67
2022/05/07 02:11:07;;;;;;;33.22;23.42;;;;;;;;;;6229001;28;20320;-67
2022/05/07 02:14:09;;;;;;;37.53;24.38;;;;;;;;;;6228349;28;20077;-68
2022/05/07 02:17:11;;;;;;;33.72;24.48;;;;;;;;;;6230258;28;20050;-68
2022/05/07 02:20:12;;;;;;;36.53;24.38;;;;;;;;;;6226333;28;20054;-68
2022/05/07 02:23:17;;;;;;;33.35;23.58;;;;;;;;;;6227828;28;20054;-68
2022/05/07 02:26:19;;;;;;;34.22;23.65;;;;;;;;;;6223351;28;20129;-67
2022/05/07 02:29:21;;;;;;;35.22;24.40;;;;;;;;;;6225266;28;20054;-67
2022/05/07 02:32:23;;;;;;;37.00;25.38;;;;;;;;;;6228171;28;20050;-68
2022/05/07 02:35:25;;;;;;;38.47;25.08;;;;;;;;;;6224163;28;20050;-68
2022/05/07 02:38:28;;;;;;;36.05;23.45;;;;;;;;;;6229042;28;20054;-68
2022/05/07 02:44:49;;;;;;;35.25;23.88;;;;;;;;;;6222097;28;20066;-68
2022/05/07 02:47:50;;;;;;;36.15;24.65;;;;;;;;;;6230398;28;20093;-68
2022/05/07 02:50:52;;;;;;;35.83;24.67;;;;;;;;;;6225016;28;20116;-67
2022/05/07 02:53:55;;;;;;;37.55;24.63;;;;;;;;;;6222647;28;20049;-67
2022/05/07 02:56:58;;;;;;;38.13;24.85;;;;;;;;;;6225044;28;20049;-68
2022/05/07 02:59:59;;;;;;;41.97;25.88;;;;;;;;;;6217853;28;20113;-68
2022/05/07 03:03:01;;;;;;;38.35;25.42;;;;;;;;;;6229629;28;20340;-67
2022/05/07 03:06:03;;;;;;;39.83;25.75;;;;;;;;;;6230579;28;20417;-68
2022/05/07 03:09:06;;;;;;;40.10;26.05;;;;;;;;;;6228304;28;20045;-68
2022/05/07 03:12:09;;;;;;;39.53;25.60;;;;;;;;;;6225556;28;20046;-67
2022/05/07 03:15:11;;;;;;;38.63;25.20;;;;;;;;;;6230420;28;20459;-68
2022/05/07 03:18:13;;;;;;;40.15;26.40;;;;;;;;;;6226797;28;20093;-68
2022/05/07 03:21:14;;;;;;;41.70;26.90;;;;;;;;;;6225919;28;20129;-67
2022/05/07 03:24:18;;;;;;;42.75;26.23;;;;;;;;;;6231187;28;20045;-68
2022/05/07 03:27:19;;;;;;;42.70;26.90;;;;;;;;;;6225497;28;20054;-68
2022/05/07 03:30:22;;;;;;;43.05;25.08;;;;;;;;;;6233351;28;20054;-67
2022/05/07 03:33:25;;;;;;;39.58;26.20;;;;;;;;;;6232140;28;20124;-68
2022/05/07 03:36:26;;;;;;;39.03;26.50;;;;;;;;;;6227727;28;20233;-68
2022/05/07 03:39:31;;;;;;;43.42;27.42;;;;;;;;;;6231851;28;20092;-68
2022/05/07 03:42:33;;;;;;;42.05;26.33;;;;;;;;;;6230298;28;20046;-69
2022/05/07 03:45:35;;;;;;;42.08;26.48;;;;;;;;;;6219331;28;20050;-66
2022/05/07 03:48:37;;;;;;;43.40;26.00;;;;;;;;;;6223983;28;20049;-67
2022/05/07 03:54:56;;;;;;;40.72;25.98;;;;;;;;;;6218864;28;20042;-68
2022/05/07 03:57:57;;;;;;;47.20;26.02;;;;;;;;;;6222985;28;20080;-68
2022/05/07 04:00:59;;;;;;;42.58;26.20;;;;;;;;;;6226001;28;20088;-68
2022/05/07 04:04:01;;;;;;;40.88;24.85;;;;;;;;;;6224759;28;20114;-69
2022/05/07 04:07:04;;;;;;;41.67;25.77;;;;;;;;;;6228106;28;20041;-67
2022/05/07 04:10:08;;;;;;;39.60;24.92;;;;;;;;;;6230126;28;20054;-67
2022/05/07 04:13:10;;;;;;;44.70;25.92;;;;;;;;;;6223995;28;20072;-67
2022/05/07 04:16:12;;;;;;;46.92;26.17;;;;;;;;;;6228016;28;20050;-67
2022/05/07 04:19:15;;;;;;;45.40;25.33;;;;;;;;;;6219372;28;20321;-67
2022/05/07 04:22:16;;;;;;;43.10;26.38;;;;;;;;;;6227582;28;20074;-66
2022/05/07 04:25:19;;;;;;;39.47;24.77;;;;;;;;;;6223802;28;20042;-66
2022/05/07 04:28:21;;;;;;;43.25;25.95;;;;;;;;;;6232677;28;20272;-67
2022/05/07 04:31:23;;;;;;;41.40;26.63;;;;;;;;;;6226737;28;20054;-68
2022/05/07 04:34:26;;;;;;;41.60;25.77;;;;;;;;;;6227781;28;20107;-68
2022/05/07 04:37:28;;;;;;;42.90;25.37;;;;;;;;;;6228525;28;20049;-68
2022/05/07 04:40:31;;;;;;;40.15;24.58;;;;;;;;;;6223231;28;20056;-68
2022/05/07 04:43:32;;;;;;;42.70;25.30;;;;;;;;;;6222427;28;20272;-69
2022/05/07 04:46:34;;;;;;;50.10;28.73;;;;;;;;;;6229414;28;20053;-67
2022/05/07 04:49:36;;;;;;;44.88;29.23;;;;;;;;;;6224882;28;20046;-67
2022/05/07 04:52:38;;;;;;;54.40;31.92;;;;;;;;;;6229034;28;20058;-67
2022/05/07 04:55:41;;;;;;;49.33;28.95;;;;;;;;;;6227931;28;20053;-68
2022/05/07 04:58:43;;;;;;;50.75;29.80;;;;;;;;;;6227905;28;20225;-68
2022/05/07 05:01:45;;;;;;;51.38;30.02;;;;;;;;;;6221905;28;20050;-68
2022/05/07 05:04:46;;;;;;;48.42;29.35;;;;;;;;;;6220210;28;20058;-67
2022/05/07 05:07:48;;;;;;;54.95;32.40;;;;;;;;;;6224240;28;20049;-67
2022/05/07 05:10:51;;;;;;;50.42;29.77;;;;;;;;;;6220492;28;20088;-67
2022/05/07 05:13:53;;;;;;;51.63;30.17;;;;;;;;;;6222604;28;20049;-68
2022/05/07 05:16:54;;;;;;;47.88;30.17;;;;;;;;;;6219069;28;20046;-67
2022/05/07 05:19:56;;;;;;;50.85;30.05;;;;;;;;;;6227024;28;20051;-67
2022/05/07 05:22:58;;;;;;;45.72;29.48;;;;;;;;;;6222073;28;20360;-67
2022/05/07 05:26:01;;;;;;;45.72;28.33;;;;;;;;;;6223000;28;20280;-67
2022/05/07 05:29:02;;;;;;;49.83;30.60;;;;;;;;;;6215396;28;20376;-68
2022/05/07 05:32:05;;;;;;;47.22;30.50;;;;;;;;;;6218155;28;20340;-67
2022/05/07 05:35:07;;;;;;;47.58;28.92;;;;;;;;;;6220884;28;20096;-68
2022/05/07 05:38:09;;;;;;;42.17;28.15;;;;;;;;;;6222082;28;20050;-67
2022/05/07 05:41:12;;;;;;;48.05;29.63;;;;;;;;;;6226858;28;20115;-67
2022/05/07 05:44:13;;;;;;;48.58;29.50;;;;;;;;;;6229075;28;20046;-67
2022/05/07 05:47:15;;;;;;;43.38;28.45;;;;;;;;;;6231353;28;20058;-68
2022/05/07 05:50:17;;;;;;;50.28;29.70;;;;;;;;;;6231601;28;20127;-70
2022/05/07 05:53:19;;;;;;;46.72;27.42;;;;;;;;;;6228506;28;20053;-68
2022/05/07 05:56:22;;;;;;;43.92;28.08;;;;;;;;;;6221888;28;20049;-69
2022/05/07 05:59:23;;;;;;;44.13;28.05;;;;;;;;;;6228937;28;20280;-69
2022/05/07 06:02:25;;;;;;;46.45;28.15;;;;;;;;;;6233949;28;20508;-69
2022/05/07 06:05:26;;;;;;;41.42;26.88;;;;;;;;;;6226445;28;20272;-69
2022/05/07 06:08:28;;;;;;;41.03;27.40;;;;;;;;;;6222258;28;20101;-69
2022/05/07 06:11:31;;;;;;;41.67;26.30;;;;;;;;;;6228717;28;20359;-70
2022/05/07 06:14:32;;;;;;;41.70;26.67;;;;;;;;;;6232849;28;20108;-68
2022/05/07 06:17:34;;;;;;;44.35;27.48;;;;;;;;;;6231471;28;20329;-69
2022/05/07 06:20:36;;;;;;;40.58;27.17;;;;;;;;;;6232560;28;20645;-70
2022/05/07 06:23:37;;;;;;;40.95;25.65;;;;;;;;;;6230053;28;20100;-70
2022/05/07 06:29:57;;;;;;;37.30;25.05;;;;;;;;;;6208951;28;20040;-69
2022/05/07 06:32:58;;;;;;;39.22;26.73;;;;;;;;;;6225858;28;20256;-69
2022/05/07 06:36:00;;;;;;;40.70;25.83;;;;;;;;;;6227085;28;20046;-69
2022/05/07 06:39:02;;;;;;;37.10;25.17;;;;;;;;;;6233864;28;20041;-68
2022/05/07 06:42:06;;;;;;;40.03;25.30;;;;;;;;;;6229050;28;20112;-68
2022/05/07 06:45:08;;;;;;;36.35;24.85;;;;;;;;;;6225496;28;20050;-69
2022/05/07 06:48:11;;;;;;;37.42;26.45;;;;;;;;;;6225634;28;20096;-70
2022/05/07 06:51:13;;;;;;;38.38;23.85;;;;;;;;;;6224847;28;20070;-68
2022/05/07 06:54:15;;;;;;;34.38;24.15;;;;;;;;;;6227015;28;20078;-67
2022/05/07 06:57:17;;;;;;;35.05;25.35;;;;;;;;;;6228627;28;20091;-67
2022/05/07 07:00:19;;;;;;;35.87;24.97;;;;;;;;;;6224310;28;20057;-68
2022/05/07 07:03:21;;;;;;;35.28;25.40;;;;;;;;;;6214951;28;20058;-68
2022/05/07 07:06:23;;;;;;;40.05;25.73;;;;;;;;;;6226197;28;20108;-68
2022/05/07 07:09:24;;;;;;;37.55;24.95;;;;;;;;;;6227756;28;20089;-69
2022/05/07 07:12:28;;;;;;;36.47;25.02;;;;;;;;;;6222979;28;20073;-69
2022/05/07 07:15:29;;;;;;;29.08;21.55;;;;;;;;;;6221985;28;20066;-69
2022/05/07 07:18:32;;;;;;;30.60;20.65;;;;;;;;;;6224638;28;20100;-69
2022/05/07 07:21:33;;;;;;;30.17;21.40;;;;;;;;;;6217157;28;20223;-70
2022/05/07 07:24:35;;;;;;;34.88;21.83;;;;;;;;;;6224420;28;20117;-69
2022/05/07 07:27:38;;;;;;;27.45;20.42;;;;;;;;;;6220412;28;20050;-69
2022/05/07 07:30:40;;;;;;;31.83;20.40;;;;;;;;;;6220244;28;20321;-70
2022/05/07 07:33:42;;;;;;;27.80;20.27;;;;;;;;;;6231258;28;20046;-68
2022/05/07 07:36:44;;;;;;;24.67;18.65;;;;;;;;;;6228312;28;20276;-68
2022/05/07 07:39:46;;;;;;;23.85;17.60;;;;;;;;;;6229277;28;20101;-68
2022/05/07 07:42:49;;;;;;;24.73;17.63;;;;;;;;;;6223984;28;20245;-68
2022/05/07 07:49:10;;;;;;;23.58;16.90;;;;;;;;;;6230068;28;20636;-68
2022/05/07 07:52:12;;;;;;;23.13;16.63;;;;;;;;;;6221977;28;20340;-68
2022/05/07 07:55:14;;;;;;;23.98;17.63;;;;;;;;;;6217618;28;20049;-68
2022/05/07 07:58:17;;;;;;;24.02;17.55;;;;;;;;;;6222923;28;20112;-67
2022/05/07 08:01:19;;;;;;;24.00;18.95;;;;;;;;;;6221930;28;20061;-70
2022/05/07 08:04:22;;;;;;;23.90;16.60;;;;;;;;;;6218483;28;20089;-68
2022/05/07 08:14:04;;;;;;;19.90;15.43;;;;;;;;;;6225605;28;20046;-68
2022/05/07 08:17:06;;;;;;;20.45;15.45;;;;;;;;;;6226627;28;20260;-68
2022/05/07 08:20:09;;;;;;;19.52;14.38;;;;;;;;;;6221778;28;20057;-69
2022/05/07 08:23:12;;;;;;;19.85;14.90;;;;;;;;;;6228592;28;20065;-68
2022/05/07 08:26:14;;;;;;;18.58;13.93;;;;;;;;;;6228997;28;20061;-70
2022/05/07 08:29:17;;;;;;;22.00;14.38;;;;;;;;;;6232024;28;20069;-70
2022/05/07 08:32:19;;;;;;;21.83;16.00;;;;;;;;;;6223659;28;20050;-69
2022/05/07 08:35:21;;;;;;;25.23;16.60;;;;;;;;;;6228268;28;20267;-70
2022/05/07 08:38:22;;;;;;;25.10;17.45;;;;;;;;;;6222741;28;20124;-70
2022/05/07 08:41:24;;;;;;;22.70;17.05;;;;;;;;;;6221168;28;20053;-70
2022/05/07 08:44:27;;;;;;;23.27;16.80;;;;;;;;;;6225256;28;20087;-71
2022/05/07 08:47:30;;;;;;;28.33;17.48;;;;;;;;;;6217981;28;20101;-70
2022/05/07 08:50:32;;;;;;;24.23;17.07;;;;;;;;;;6216218;28;20050;-70
2022/05/07 08:53:34;;;;;;;22.33;15.82;;;;;;;;;;6225432;28;20481;-69
2022/05/07 08:56:36;;;;;;;17.58;13.57;;;;;;;;;;6225533;28;20281;-70
2022/05/07 08:59:39;;;;;;;19.30;14.07;;;;;;;;;;6225124;28;20061;-70
2022/05/07 09:02:43;;;;;;;18.77;13.73;;;;;;;;;;6224330;28;20054;-69
2022/05/07 09:05:45;;;;;;;;;;;;;;;;;;6225332;28;20041;-70
2022/05/07 09:08:47;;;;;;;17.33;13.55;;;;;;;;;;6229054;28;19971;-70
2022/05/07 09:11:49;;;;;;;18.45;14.23;;;;;;;;;;6224294;28;20045;-67
2022/05/07 09:14:52;;;;;;;19.55;14.48;;;;;;;;;;6224923;28;20333;-70
2022/05/07 09:17:54;;;;;;;20.02;14.07;;;;;;;;;;6221771;28;20116;-70
2022/05/07 09:21:15;;;;;;;16.27;13.05;;;;;;;;;;6231786;28;20101;-68
2022/05/07 09:24:18;;;;;;;12.57;9.90;;;;;;;;;;6229274;28;20057;-68
2022/05/07 09:27:19;;;;;;;12.77;10.18;;;;;;;;;;6228309;28;20046;-68
2022/05/07 09:30:24;;;;;;;14.95;9.57;;;;;;;;;;6231827;28;20209;-68
2022/05/07 09:33:33;;;;;;;12.85;10.68;;;;;;;;;;6227305;28;20105;-68
2022/05/07 09:36:34;;;;;;;12.52;9.20;;;;;;;;;;6225954;28;20054;-69
2022/05/07 09:39:35;;;;;;;12.32;9.32;;;;;;;;;;6227894;28;20060;-69
2022/05/07 09:42:38;;;;;;;14.82;9.27;;;;;;;;;;6227378;28;20057;-69
2022/05/07 09:45:42;;;;;;;11.73;9.23;;;;;;;;;;6228630;28;20046;-69
2022/05/07 09:48:45;;;;;;;12.70;10.15;;;;;;;;;;6227946;28;20054;-68
2022/05/07 09:51:47;;;;;;;10.25;8.35;;;;;;;;;;6226432;28;20042;-68
2022/05/07 09:58:08;;;;;;;10.05;8.13;;;;;;;;;;6222900;28;20054;-66
2022/05/07 10:01:34;;;;;;;10.98;9.07;;;;;;;;;;6226404;28;20050;-64
2022/05/07 10:04:45;;;;;;;11.77;8.75;;;;;;;;;;6222240;28;20057;-65
2022/05/07 10:08:07;;;;;;;11.82;8.55;;;;;;;;;;6221262;28;20278;-65
2022/05/07 10:11:09;;;;;;;10.68;9.30;;;;;;;;;;6222463;28;20046;-65
2022/05/07 10:14:10;;;;;;;13.52;8.30;;;;;;;;;;6227438;28;20049;-65
2022/05/07 10:17:15;;;;;;;11.77;9.57;;;;;;;;;;6229525;28;20038;-66
2022/05/07 10:20:23;;;;;;;14.73;8.77;;;;;;;;;;6223126;28;20058;-67
2022/05/07 10:23:28;;;;;;;10.98;8.90;;;;;;;;;;6227906;28;20046;-67
2022/05/07 10:26:39;;;;;;;12.25;9.15;;;;;;;;;;6221033;28;20062;-67
2022/05/07 10:29:41;;;;;;;11.45;9.52;;;;;;;;;;6228625;28;20351;-67
2022/05/07 10:32:57;;;;;;;12.40;9.10;;;;;;;;;;6222451;28;20053;-67
2022/05/07 10:36:08;;;;;;;11.55;8.40;;;;;;;;;;6224437;28;20301;-67
2022/05/07 10:39:10;;;;;;;10.77;9.32;;;;;;;;;;6222572;28;20042;-67
2022/05/07 10:42:16;;;;;;;11.07;8.52;;;;;;;;;;6230356;28;20054;-67
2022/05/07 10:45:21;;;;;;;12.13;8.95;;;;;;;;;;6228246;28;20057;-66
2022/05/07 10:48:24;;;;;;;10.30;9.20;;;;;;;;;;6227616;28;20125;-67
2022/05/07 10:51:27;;;;;;;10.60;8.40;;;;;;;;;;6227699;28;20065;-67
2022/05/07 10:54:29;;;;;;;9.20;7.72;;;;;;;;;;6225563;28;20045;-67
2022/05/07 10:57:38;;;;;;;10.45;7.97;;;;;;;;;;6227829;28;20104;-67
2022/05/07 11:00:40;;;;;;;8.73;6.97;;;;;;;;;;6223443;28;20213;-68
2022/05/07 11:03:43;;;;;;;8.77;7.28;;;;;;;;;;6222292;28;20220;-68
2022/05/07 11:06:49;;;;;;;9.95;7.93;;;;;;;;;;6234905;28;20343;-66
2022/05/07 11:09:51;;;;;;;9.07;7.53;;;;;;;;;;6229745;28;20137;-67
2022/05/07 11:12:53;;;;;;;9.15;7.25;;;;;;;;;;6228412;28;20081;-67
2022/05/07 11:16:03;;;;;;;11.07;7.85;;;;;;;;;;6227352;28;20056;-67
2022/05/07 11:19:06;;;;;;;8.18;6.70;;;;;;;;;;6225396;28;20105;-69
2022/05/07 11:22:10;;;;;;;8.55;6.97;;;;;;;;;;6224572;28;20054;-67
2022/05/07 11:25:12;;;;;;;7.00;6.28;;;;;;;;;;6226956;28;20054;-67
2022/05/07 11:28:15;;;;;;;7.45;6.30;;;;;;;;;;6224253;28;20112;-67
2022/05/07 11:31:27;;;;;;;7.35;6.38;;;;;;;;;;6227367;28;20132;-68
2022/05/07 11:34:32;;;;;;;7.65;6.20;;;;;;;;;;6233917;28;20305;-67
2022/05/07 11:37:41;;;;;;;6.50;5.55;;;;;;;;;;6227856;28;20120;-68
2022/05/07 11:40:42;;;;;;;5.82;4.55;;;;;;;;;;6225975;28;20050;-68
2022/05/07 11:47:20;;;;;;;8.25;6.47;;;;;;;;;;6193200;28;20078;-66
2022/05/07 11:50:25;;;;;;;8.90;7.28;;;;;;;;;;6219841;28;20115;-68
2022/05/07 11:53:28;;;;;;;10.55;7.55;;;;;;;;;;6219724;28;20050;-68
2022/05/07 11:56:30;;;;;;;11.50;5.63;;;;;;;;;;6222457;28;20328;-68
2022/05/07 11:59:42;;;;;;;9.40;6.20;;;;;;;;;;6225935;28;20264;-68
2022/05/07 12:02:52;;;;;;;9.63;7.60;;;;;;;;;;6224317;28;20050;-68
2022/05/07 12:05:56;;;;;;;9.18;6.88;;;;;;;;;;6223673;28;20822;-67
2022/05/07 12:08:58;;;;;;;6.80;6.07;;;;;;;;;;6224530;28;20347;-67
2022/05/07 12:12:00;;;;;;;6.78;5.75;;;;;;;;;;6220213;28;20153;-67
2022/05/07 12:15:01;;;;;;;6.03;5.30;;;;;;;;;;6220014;28;20053;-67
2022/05/07 12:18:03;;;;;;;6.65;5.00;;;;;;;;;;6219160;28;20050;-68
2022/05/07 12:21:06;;;;;;;8.65;5.20;;;;;;;;;;6218278;28;20046;-67
2022/05/07 12:30:47;;;;;;;6.53;4.50;;;;;;;;;;6224989;28;20053;-67
2022/05/07 12:33:48;;;;;;;6.50;5.40;;;;;;;;;;6222154;28;20307;-67
2022/05/07 12:36:51;;;;;;;7.00;5.25;;;;;;;;;;6218828;28;20046;-67
2022/05/07 12:39:53;;;;;;;6.05;5.45;;;;;;;;;;6217506;28;20093;-67
2022/05/07 12:42:54;;;;;;;7.30;5.72;;;;;;;;;;6215858;28;20287;-68
2022/05/07 12:45:56;;;;;;;6.43;5.55;;;;;;;;;;6219411;28;20352;-67
2022/05/07 12:48:58;;;;;;;7.45;6.00;;;;;;;;;;6216550;28;20096;-68
2022/05/07 12:52:02;;;;;;;8.15;6.03;;;;;;;;;;6223799;28;20045;-70
2022/05/07 12:55:04;;;;;;;6.97;6.10;;;;;;;;;;6221507;28;20113;-68
2022/05/07 12:58:08;;;;;;;7.88;6.25;;;;;;;;;;6227041;28;20120;-68
2022/05/07 13:01:11;;;;;;;;;;;;;;;;;;6226164;28;20279;-71
2022/05/07 13:04:13;;;;;;;11.85;6.55;;;;;;;;;;6216086;28;20004;-67
2022/05/07 13:07:16;;;;;;;7.47;5.97;;;;;;;;;;6223084;28;20045;-68
2022/05/07 13:10:18;;;;;;;8.55;6.70;;;;;;;;;;6223100;28;20057;-68
2022/05/07 13:13:23;;;;;;;8.98;6.00;;;;;;;;;;6225958;28;20268;-68
2022/05/07 13:16:24;;;;;;;9.20;6.63;;;;;;;;;;6223439;28;20100;-68
2022/05/07 13:19:26;;;;;;;38.63;28.10;;;;;;;;;;6227351;28;20057;-68
2022/05/07 13:22:29;;;;;;;216.25;139.23;;;;;;;;;;6218830;28;20136;-68
2022/05/07 13:25:30;;;;;;;28.67;19.23;;;;;;;;;;6230440;28;20121;-68
2022/05/07 13:28:32;;;;;;;22.33;16.30;;;;;;;;;;6225051;28;20057;-68
2022/05/07 13:31:35;;;;;;;29.10;19.30;;;;;;;;;;6226012;28;20129;-69
2022/05/07 13:34:36;;;;;;;9.05;7.88;;;;;;;;;;6223434;28;20184;-69
2022/05/07 13:37:39;;;;;;;9.35;8.02;;;;;;;;;;6224267;28;20096;-69
2022/05/07 13:40:41;;;;;;;9.40;8.15;;;;;;;;;;6225311;28;20050;-69
2022/05/07 13:43:42;;;;;;;10.15;8.43;;;;;;;;;;6215837;28;20329;-69
2022/05/07 13:46:44;;;;;;;8.95;7.93;;;;;;;;;;6223079;28;20053;-68
2022/05/07 13:49:46;;;;;;;9.68;7.95;;;;;;;;;;6231483;28;20118;-70
2022/05/07 13:52:49;;;;;;;9.65;7.47;;;;;;;;;;6227025;28;20046;-69
2022/05/07 13:55:51;;;;;;;10.27;7.15;;;;;;;;;;6229895;28;20073;-69
2022/05/07 13:58:52;;;;;;;7.95;7.15;;;;;;;;;;6226587;28;20050;-69
2022/05/07 14:01:54;;;;;;;10.95;7.85;;;;;;;;;;6229219;28;20287;-69
2022/05/07 14:04:55;;;;;;;9.25;7.10;;;;;;;;;;6226180;28;20049;-69
2022/05/07 14:07:58;;;;;;;7.28;6.57;;;;;;;;;;6227500;28;20049;-69
2022/05/07 14:11:00;;;;;;;8.45;6.93;;;;;;;;;;6224173;28;20058;-69
2022/05/07 14:14:03;;;;;;;9.13;6.60;;;;;;;;;;6230306;28;20384;-70
2022/05/07 14:17:05;;;;;;;8.40;7.13;;;;;;;;;;6229635;28;20056;-70
2022/05/07 14:20:08;;;;;;;7.32;6.10;;;;;;;;;;6227994;28;20050;-69
2022/05/07 14:23:14;;;;;;;7.22;6.20;;;;;;;;;;6224691;28;20060;-69
2022/05/07 14:26:15;;;;;;;6.45;5.03;;;;;;;;;;6230954;28;20050;-70
2022/05/07 14:29:17;;;;;;;8.05;5.38;;;;;;;;;;6222112;28;20400;-69
2022/05/07 14:32:20;;;;;;;6.90;5.10;;;;;;;;;;6227024;28;20340;-69
2022/05/07 14:35:22;;;;;;;;;;;;;;;;;;6219090;28;20316;-69
2022/05/07 14:38:25;;;;;;;6.57;4.88;;;;;;;;;;6229176;28;19918;-68
2022/05/07 14:41:26;;;;;;;7.00;5.80;;;;;;;;;;6231129;28;20061;-69
2022/05/07 14:44:28;;;;;;;7.63;5.03;;;;;;;;;;6227364;28;20057;-69
2022/05/07 14:47:30;;;;;;;7.50;5.63;;;;;;;;;;6225350;28;20061;-69
2022/05/07 14:50:31;;;;;;;6.45;5.63;;;;;;;;;;6222188;28;20057;-69
2022/05/07 14:53:34;;;;;;;8.52;5.85;;;;;;;;;;6228841;28;20057;-69
2022/05/07 14:56:36;;;;;;;10.05;5.85;;;;;;;;;;6223703;28;20049;-69
2022/05/07 14:59:38;;;;;;;6.03;5.07;;;;;;;;;;6226597;28;20049;-69
2022/05/07 15:02:41;;;;;;;5.43;4.45;;;;;;;;;;6221877;28;20358;-69
2022/05/07 15:05:42;;;;;;;5.60;4.72;;;;;;;;;;6217582;28;20092;-69
2022/05/07 15:12:06;;;;;;;5.55;3.65;;;;;;;;;;6223420;28;20050;-69
2022/05/07 15:15:09;;;;;;;4.78;3.42;;;;;;;;;;6219025;28;20052;-69
2022/05/07 15:18:10;;;;;;;4.85;3.70;;;;;;;;;;6219650;28;20103;-68
2022/05/07 15:21:13;;;;;;;6.10;3.97;;;;;;;;;;6223911;28;20046;-68
2022/05/07 15:24:16;;;;;;;4.00;3.33;;;;;;;;;;6224473;28;20058;-69
2022/05/07 15:27:17;;;;;;;6.13;4.13;;;;;;;;;;6226306;28;20050;-69
2022/05/07 15:30:20;;;;;;;5.43;4.30;;;;;;;;;;6224999;28;20069;-69
2022/05/07 15:36:49;;;;;;;4.55;4.03;;;;;;;;;;6225793;28;20253;-69
2022/05/07 15:39:53;;;;;;;5.03;4.20;;;;;;;;;;6226660;28;20112;-69
2022/05/07 15:42:56;;;;;;;;;;;;;;;;;;6226836;28;20213;-69
2022/05/07 15:45:58;;;;;;;5.47;4.50;;;;;;;;;;6225038;28;19978;-69
2022/05/07 15:49:00;;;;;;;5.35;4.80;;;;;;;;;;6229320;28;20042;-69
2022/05/07 15:52:02;;;;;;;7.35;4.63;;;;;;;;;;6223199;28;20344;-69
2022/05/07 15:55:06;;;;;;;5.05;4.15;;;;;;;;;;6217958;28;20052;-69
2022/05/07 15:58:07;;;;;;;5.90;4.47;;;;;;;;;;6222600;28;20058;-69
2022/05/07 16:01:09;;;;;;;5.93;4.50;;;;;;;;;;6228824;28;20188;-69
2022/05/07 16:04:11;;;;;;;6.13;4.60;;;;;;;;;;6230950;28;20045;-69
2022/05/07 16:07:12;;;;;;;5.70;4.43;;;;;;;;;;6231472;28;20048;-68
2022/05/07 16:10:15;;;;;;;5.05;4.55;;;;;;;;;;6227636;28;20939;-69
2022/05/07 16:13:18;;;;;;;5.63;4.97;;;;;;;;;;6222533;28;20057;-69
2022/05/07 16:16:20;;;;;;;6.97;5.78;;;;;;;;;;6222696;28;20050;-70
2022/05/07 16:19:22;;;;;;;7.15;6.25;;;;;;;;;;6221010;28;20058;-68
2022/05/07 16:25:44;;;;;;;9.05;6.53;;;;;;;;;;6221953;28;20058;-69
2022/05/07 16:28:46;;;;;;;8.20;5.43;;;;;;;;;;6227227;28;20332;-69
2022/05/07 16:31:47;;;;;;;6.40;5.22;;;;;;;;;;6226031;28;20308;-69
2022/05/07 16:34:49;;;;;;;8.80;5.75;;;;;;;;;;6226114;28;20049;-70
2022/05/07 16:37:51;;;;;;;7.05;5.65;;;;;;;;;;6223337;28;20364;-70
2022/05/07 16:40:54;;;;;;;7.68;5.97;;;;;;;;;;6223893;28;20276;-70
2022/05/07 16:43:55;;;;;;;6.15;4.82;;;;;;;;;;6229722;28;20053;-70
2022/05/07 16:46:57;;;;;;;6.15;5.30;;;;;;;;;;6222854;28;20046;-70
2022/05/07 16:49:59;;;;;;;5.93;4.95;;;;;;;;;;6218343;28;20136;-66
2022/05/07 16:53:00;;;;;;;7.60;5.43;;;;;;;;;;6216285;28;20100;-69
2022/05/07 16:56:04;;;;;;;6.07;5.30;;;;;;;;;;6224877;28;20054;-69
2022/05/07 16:59:07;;;;;;;7.97;5.43;;;;;;;;;;6223909;28;20042;-69
2022/05/07 17:02:09;;;;;;;6.25;5.05;;;;;;;;;;6225914;28;20099;-69
2022/05/07 17:05:11;;;;;;;7.57;5.28;;;;;;;;;;6219476;28;20061;-68
2022/05/07 17:08:13;;;;;;;8.70;6.15;;;;;;;;;;6221551;28;20050;-71
2022/05/07 17:11:16;;;;;;;9.18;6.53;;;;;;;;;;6216659;28;20049;-72
2022/05/07 17:14:17;;;;;;;7.80;6.72;;;;;;;;;;6220426;28;20112;-71
2022/05/07 17:17:19;;;;;;;7.65;5.80;;;;;;;;;;6224938;28;20049;-72
2022/05/07 17:20:21;;;;;;;6.65;5.65;;;;;;;;;;6225154;28;20049;-72
2022/05/07 17:23:22;;;;;;;8.57;6.72;;;;;;;;;;6226525;28;20344;-69
2022/05/07 17:26:25;;;;;;;7.22;6.47;;;;;;;;;;6223433;28;20096;-69
2022/05/07 17:29:27;;;;;;;13.18;6.03;;;;;;;;;;6226024;28;20057;-68
2022/05/07 17:32:29;;;;;;;6.55;5.90;;;;;;;;;;6231343;28;20053;-68
2022/05/07 17:35:30;;;;;;;9.05;6.00;;;;;;;;;;6224306;28;20062;-68
2022/05/07 17:38:32;;;;;;;7.38;5.65;;;;;;;;;;6228032;28;20061;-68
2022/05/07 17:41:37;;;;;;;7.97;6.57;;;;;;;;;;6231245;28;20356;-68
2022/05/07 17:44:38;;;;;;;7.88;6.53;;;;;;;;;;6219610;28;20206;-68
2022/05/07 17:47:40;;;;;;;8.80;6.25;;;;;;;;;;6234379;28;20045;-66
2022/05/07 17:50:42;;;;;;;8.77;6.97;;;;;;;;;;6231246;28;20059;-67
2022/05/07 17:53:44;;;;;;;8.20;6.65;;;;;;;;;;6223950;28;20383;-67
2022/05/07 17:56:47;;;;;;;8.40;6.65;;;;;;;;;;6225789;28;20061;-67
2022/05/07 17:59:48;;;;;;;8.00;6.97;;;;;;;;;;6226737;28;20112;-69
2022/05/07 18:02:50;;;;;;;8.40;6.97;;;;;;;;;;6223590;28;20093;-70
2022/05/07 18:05:51;;;;;;;9.55;7.35;;;;;;;;;;6232451;28;20046;-69
2022/05/07 18:08:53;;;;;;;8.68;7.18;;;;;;;;;;6232994;28;20053;-68
2022/05/07 18:11:56;;;;;;;10.05;7.97;;;;;;;;;;6228288;28;20068;-68
2022/05/07 18:14:58;;;;;;;9.88;7.32;;;;;;;;;;6235819;28;20087;-69
2022/05/07 18:18:00;;;;;;;9.77;7.28;;;;;;;;;;6235432;28;20049;-69
2022/05/07 18:21:01;;;;;;;11.48;7.80;;;;;;;;;;6232071;28;20252;-68
2022/05/07 18:24:03;;;;;;;9.45;7.78;;;;;;;;;;6231080;28;20403;-68
2022/05/07 18:27:06;;;;;;;10.43;7.63;;;;;;;;;;6227343;28;20120;-68
2022/05/07 18:30:09;;;;;;;10.95;7.93;;;;;;;;;;6231383;28;20225;-69
2022/05/07 18:33:13;;;;;;;9.60;7.53;;;;;;;;;;6227215;28;20068;-68
2022/05/07 18:42:54;;;;;;;9.50;8.27;;;;;;;;;;6228636;28;20050;-68
2022/05/07 18:45:56;;;;;;;10.32;7.85;;;;;;;;;;6228015;28;20052;-70
2022/05/07 18:48:59;;;;;;;12.10;9.10;;;;;;;;;;6231372;28;20240;-69